Time;durP1;ratioP1;P1;durP2;ratioP2;P2;SDS_P1;SDS_P2;PMS_P1;PMS_P2;Temp;Humidity;BMP_temperature;BMP_pressure;BME280_temperature;BME280_humidity;BME280_pressure;Samples;Min_cycle;Max_cycle;Signal;HPM_P1;HPM_P2
2022/01/13 00:01:25;;;;;;;65.97;36.38;;;;;;;1.66;81.84;102030.06;5005359;28;20084;-72
2022/01/13 00:03:51;;;;;;;61.67;35.33;;;;;;;1.60;81.90;102032.53;5009530;28;20113;-72
2022/01/13 00:06:16;;;;;;;66.32;37.10;;;;;;;1.57;82.28;102032.44;5009517;28;20121;-72
2022/01/13 00:08:42;;;;;;;76.88;38.83;;;;;;;1.61;82.49;102023.00;5009609;28;20117;-72
2022/01/13 00:11:07;;;;;;;75.78;42.03;;;;;;;1.59;82.34;102025.56;5008823;28;20041;-72
2022/01/13 00:13:46;;;;;;;68.78;39.75;;;;;;;1.57;82.69;102022.03;5010301;28;20112;-71
2022/01/13 00:16:37;;;;;;;81.72;42.67;;;;;;;1.59;82.59;102016.88;5008353;28;20041;-72
2022/01/13 00:19:17;;;;;;;77.85;40.88;;;;;;;1.55;82.72;102020.25;5009744;28;20038;-73
2022/01/13 00:21:59;;;;;;;92.65;45.10;;;;;;;1.54;82.60;102029.78;5006855;28;20511;-72
2022/01/13 00:24:24;;;;;;;84.78;41.33;;;;;;;1.57;82.89;102021.16;5007738;28;20041;-72
2022/01/13 00:26:50;;;;;;;79.00;38.70;;;;;;;1.54;82.99;102021.09;5009509;28;20406;-73
2022/01/13 00:29:21;;;;;;;86.20;42.45;;;;;;;1.55;83.70;102015.94;5008339;28;20406;-73
2022/01/13 00:31:46;;;;;;;71.55;37.75;;;;;;;1.56;82.98;102017.69;5005922;28;20117;-73
2022/01/13 00:34:12;;;;;;;66.78;36.72;;;;;;;1.55;82.77;102012.44;5009363;28;20054;-73
2022/01/13 00:36:39;;;;;;;61.13;32.58;;;;;;;1.60;82.84;102011.75;5009060;28;20030;-72
2022/01/13 00:39:06;;;;;;;80.20;39.42;;;;;;;1.60;82.42;102016.94;5006992;28;20037;-71
2022/01/13 00:41:32;;;;;;;83.18;41.35;;;;;;;1.59;82.56;102009.97;5008616;28;20124;-72
2022/01/13 00:44:00;;;;;;;66.15;32.13;;;;;;;1.54;82.77;102008.97;5009039;28;20116;-72
2022/01/13 00:46:31;;;;;;;61.58;31.23;;;;;;;1.52;82.94;101996.78;5009677;28;20675;-72
2022/01/13 00:48:56;;;;;;;60.15;32.97;;;;;;;1.45;82.85;101996.66;5009514;28;20038;-71
2022/01/13 00:51:24;;;;;;;67.28;35.28;;;;;;;1.36;83.08;101992.97;5008505;28;20380;-71
2022/01/13 00:53:51;;;;;;;59.55;30.85;;;;;;;1.35;83.71;101993.78;5009372;28;20061;-71
2022/01/13 00:56:17;;;;;;;56.00;30.50;;;;;;;1.35;82.79;101992.06;5009501;28;20033;-71
2022/01/13 00:58:42;;;;;;;66.35;34.10;;;;;;;1.34;83.31;101992.91;5008818;28;20045;-71
2022/01/13 01:01:08;;;;;;;61.72;29.90;;;;;;;1.31;82.81;101997.16;5008484;28;20128;-71
2022/01/13 01:03:35;;;;;;;69.82;32.40;;;;;;;1.29;82.67;101997.13;5009514;28;20425;-72
2022/01/13 01:06:03;;;;;;;68.47;32.53;;;;;;;1.25;83.01;102000.47;5008502;28;20029;-72
2022/01/13 01:08:30;;;;;;;53.28;29.30;;;;;;;1.22;83.17;102009.06;5007594;28;20025;-73
2022/01/13 01:10:56;;;;;;;60.70;32.05;;;;;;;1.20;82.67;102008.16;5008069;28;20040;-72
2022/01/13 01:13:27;;;;;;;55.08;28.40;;;;;;;1.11;82.99;102010.53;5009395;28;20042;-73
2022/01/13 01:15:55;;;;;;;60.15;29.85;;;;;;;1.01;83.14;102005.91;5009988;28;20037;-73
2022/01/13 01:26:41;;;;;;;42.78;24.50;;;;;;;1.05;83.24;102021.63;4996676;28;20121;-73
2022/01/13 01:31:40;;;;;;;52.13;26.23;;;;;;;0.98;83.47;102022.31;5005103;28;20034;-72
2022/01/13 01:36:37;;;;;;;50.33;26.13;;;;;;;0.98;82.65;102029.22;5005213;28;20460;-72
2022/01/13 01:39:03;;;;;;;51.38;25.80;;;;;;;0.96;82.99;102034.41;5008860;28;20034;-71
2022/01/13 01:41:29;;;;;;;56.50;29.38;;;;;;;0.95;83.44;102026.56;5007642;28;20038;-72
2022/01/13 01:44:00;;;;;;;47.10;26.40;;;;;;;0.94;83.31;102024.81;5007918;28;20030;-71
2022/01/13 01:46:26;;;;;;;49.10;25.38;;;;;;;0.97;83.05;102025.75;5008843;28;20048;-72
2022/01/13 01:48:52;;;;;;;49.15;25.48;;;;;;;0.98;82.83;102027.50;5008342;28;20038;-71
2022/01/13 01:51:17;;;;;;;48.72;25.13;;;;;;;0.97;82.71;102024.88;5007481;28;20099;-71
2022/01/13 01:53:43;;;;;;;60.13;28.92;;;;;;;0.97;83.01;102015.38;5008150;28;20616;-72
2022/01/13 01:56:09;;;;;;;47.78;25.25;;;;;;;1.08;82.76;102015.63;5008183;28;20548;-72
2022/01/13 01:58:36;;;;;;;46.83;26.08;;;;;;;1.18;83.16;102021.94;5008149;28;20037;-72
2022/01/13 02:01:02;;;;;;;43.72;25.55;;;;;;;1.16;82.45;102021.06;4984487;28;20045;-71
2022/01/13 02:03:28;;;;;;;48.35;28.23;;;;;;;1.12;81.96;102024.41;4996109;28;20042;-71
2022/01/13 02:05:54;;;;;;;37.63;22.67;;;;;;;0.99;82.21;102023.22;5008400;28;20030;-73
2022/01/13 02:08:19;;;;;;;38.40;23.30;;;;;;;0.98;82.75;102026.63;5007419;28;20042;-73
2022/01/13 02:10:45;;;;;;;46.97;25.25;;;;;;;1.01;82.79;102027.59;5007300;28;20041;-73
2022/01/13 02:13:13;;;;;;;46.28;25.70;;;;;;;1.06;82.42;102023.41;5008155;28;20079;-72
2022/01/13 02:18:14;;;;;;;35.95;20.70;;;;;;;1.11;82.25;102022.63;5006736;28;20030;-71
2022/01/13 02:20:41;;;;;;;39.83;22.70;;;;;;;1.07;81.64;102019.09;5006005;28;20368;-71
2022/01/13 02:23:06;;;;;;;37.97;22.05;;;;;;;1.07;81.71;102026.88;4988723;28;20066;-72
2022/01/13 02:25:32;;;;;;;35.20;20.38;;;;;;;1.05;81.85;102036.34;5006674;28;20057;-71
2022/01/13 02:27:57;;;;;;;41.67;23.80;;;;;;;1.02;82.01;102039.75;5008023;28;20127;-72
2022/01/13 02:30:22;;;;;;;44.50;25.15;;;;;;;0.96;82.27;102043.88;5007406;28;20038;-73
2022/01/13 02:32:48;;;;;;;36.63;20.50;;;;;;;0.92;82.28;102042.94;5005950;28;20771;-72
2022/01/13 02:35:13;;;;;;;39.35;23.05;;;;;;;0.96;82.84;102042.19;5008331;28;20040;-72
2022/01/13 02:37:38;;;;;;;42.38;24.95;;;;;;;1.01;82.41;102039.69;5007746;28;20022;-72
2022/01/13 02:40:05;;;;;;;43.92;23.08;;;;;;;1.00;82.14;102043.13;5007972;28;20129;-72
2022/01/13 02:42:30;;;;;;;40.45;21.88;;;;;;;1.03;82.64;102051.91;5007727;28;20026;-72
2022/01/13 02:45:02;;;;;;;44.95;24.55;;;;;;;1.04;82.85;102045.00;5008002;28;20495;-72
2022/01/13 02:47:47;;;;;;;46.47;27.55;;;;;;;1.00;82.84;102044.00;5007747;28;20030;-72
2022/01/13 02:50:12;;;;;;;41.28;20.52;;;;;;;1.01;82.15;102048.38;5001769;28;20505;-72
2022/01/13 02:52:38;;;;;;;40.80;22.77;;;;;;;1.04;82.36;102040.66;5006408;28;20026;-72
2022/01/13 02:55:05;;;;;;;39.58;23.75;;;;;;;1.08;82.34;102044.22;5007106;28;20038;-73
2022/01/13 02:57:32;;;;;;;47.67;24.98;;;;;;;1.10;82.73;102033.88;5007115;28;20026;-72
2022/01/13 02:59:57;;;;;;;40.42;21.55;;;;;;;1.14;82.43;102039.19;5006976;28;20030;-72
2022/01/13 03:02:29;;;;;;;40.58;23.60;;;;;;;1.13;82.44;102031.34;5006751;28;20108;-72
2022/01/13 03:04:54;;;;;;;60.40;30.95;;;;;;;1.09;82.04;102035.59;5007523;28;20502;-73
2022/01/13 03:07:20;;;;;;;51.58;26.90;;;;;;;0.96;83.33;102037.00;5006129;28;20042;-73
2022/01/13 03:09:46;;;;;;;61.10;30.83;;;;;;;0.97;82.84;102027.47;5006763;28;20038;-72
2022/01/13 03:12:11;;;;;;;76.20;32.20;;;;;;;0.97;82.80;102028.34;5010340;28;20026;-72
2022/01/13 03:14:36;;;;;;;66.15;32.15;;;;;;;0.94;83.45;102030.88;5010823;28;20034;-72
2022/01/13 03:17:02;;;;;;;76.90;37.58;;;;;;;0.91;83.12;102027.31;5010749;28;20046;-73
2022/01/13 03:19:27;;;;;;;105.68;39.85;;;;;;;0.88;83.53;102030.69;5011262;28;20041;-73
2022/01/13 03:21:52;;;;;;;92.93;38.10;;;;;;;0.89;83.62;102034.16;5010300;28;20041;-72
2022/01/13 03:24:18;;;;;;;61.40;29.30;;;;;;;0.84;83.47;102036.66;5011003;28;20033;-72
2022/01/13 03:26:46;;;;;;;80.82;36.30;;;;;;;0.87;83.69;102036.75;5011321;28;20108;-71
2022/01/13 03:31:37;;;;;;;102.18;38.50;;;;;;;0.74;84.65;102038.13;4991215;28;20060;-72
2022/01/13 03:34:02;;;;;;;64.88;28.17;;;;;;;0.79;84.87;102033.94;4990787;28;20499;-73
2022/01/13 03:36:28;;;;;;;147.43;44.53;;;;;;;0.63;84.36;102027.44;4991102;28;20076;-71
2022/01/13 03:38:54;;;;;;;168.63;52.08;;;;;;;0.51;84.27;102023.63;5006859;28;20040;-72
2022/01/13 03:41:21;;;;;;;45.97;24.90;;;;;;;0.43;84.96;102023.41;5010266;28;20069;-72
2022/01/13 03:43:46;;;;;;;54.33;28.08;;;;;;;0.45;84.97;102013.97;5010680;28;20446;-72
2022/01/13 03:46:14;;;;;;;60.72;27.60;;;;;;;0.45;84.47;102011.38;5010802;28;20084;-72
2022/01/13 03:48:40;;;;;;;37.65;20.95;;;;;;;0.47;84.91;102009.72;5010762;28;20096;-72
2022/01/13 03:51:05;;;;;;;46.05;23.40;;;;;;;0.48;84.10;102001.06;5009649;28;20041;-72
2022/01/13 03:53:31;;;;;;;43.65;24.10;;;;;;;0.42;84.13;102003.50;5009110;28;20058;-71
2022/01/13 03:56:30;;;;;;;45.20;24.20;;;;;;;0.35;83.01;101999.84;5010265;28;20034;-71
2022/01/13 03:59:34;;;;;;;42.28;22.90;;;;;;;0.32;83.62;102006.66;5010011;28;20042;-71
2022/01/13 04:02:07;;;;;;;34.67;19.98;;;;;;;0.23;83.34;101998.63;5009069;28;20063;-71
2022/01/13 04:04:36;;;;;;;29.10;16.95;;;;;;;0.26;83.72;101996.13;5010210;28;20034;-72
2022/01/13 04:07:10;;;;;;;27.30;16.08;;;;;;;0.28;83.61;101999.63;5008917;28;20030;-72
2022/01/13 04:09:35;;;;;;;37.03;20.13;;;;;;;0.22;82.86;102000.31;5009653;28;20064;-72
2022/01/13 04:12:04;;;;;;;27.35;17.40;;;;;;;0.19;82.64;101995.06;5009450;28;20491;-71
2022/01/13 04:14:44;;;;;;;28.50;17.35;;;;;;;0.17;83.22;101997.63;5009848;28;20030;-72
2022/01/13 04:17:14;;;;;;;24.15;15.18;;;;;;;0.23;83.13;102001.22;5010062;28;20037;-72
2022/01/13 04:19:41;;;;;;;30.58;17.17;;;;;;;0.24;82.08;101995.19;5010283;28;20384;-71
2022/01/13 04:22:07;;;;;;;24.00;14.80;;;;;;;0.29;82.73;101996.19;5009214;28;20041;-71
2022/01/13 04:24:33;;;;;;;26.17;16.10;;;;;;;0.31;82.58;101994.53;5009736;28;20041;-71
2022/01/13 04:26:59;;;;;;;23.50;13.73;;;;;;;0.34;82.30;102003.25;5009636;28;20038;-72
2022/01/13 04:29:35;;;;;;;28.90;16.23;;;;;;;0.38;82.00;101989.56;5009857;28;20065;-72
2022/01/13 04:32:01;;;;;;;28.88;17.52;;;;;;;0.33;82.10;101987.69;5008816;28;20042;-72
2022/01/13 04:34:27;;;;;;;24.45;15.35;;;;;;;0.35;82.12;101986.00;5009874;28;20038;-71
2022/01/13 04:36:58;;;;;;;30.00;18.30;;;;;;;0.33;81.64;101988.56;5009660;28;20121;-71
2022/01/13 04:39:24;;;;;;;24.95;13.10;;;;;;;0.35;82.35;101986.00;5009371;28;20419;-72
2022/01/13 04:41:52;;;;;;;24.23;14.65;;;;;;;0.35;81.82;101984.28;5009021;28;20586;-72
2022/01/13 04:44:19;;;;;;;23.67;14.50;;;;;;;0.36;81.81;101999.00;5009406;28;20177;-71
2022/01/13 04:46:46;;;;;;;26.00;15.80;;;;;;;0.31;81.61;101997.13;5008059;28;20040;-71
2022/01/13 04:49:12;;;;;;;29.02;17.55;;;;;;;0.29;82.08;101991.88;5009902;28;20040;-73
2022/01/13 04:51:39;;;;;;;31.90;19.50;;;;;;;0.25;81.47;101992.66;5010388;28;20042;-72
2022/01/13 04:54:06;;;;;;;25.35;16.13;;;;;;;0.27;82.53;101995.28;5008532;28;20109;-72
2022/01/13 04:56:41;;;;;;;30.42;17.98;;;;;;;0.27;82.52;101997.88;5009531;28;20037;-72
2022/01/13 04:59:07;;;;;;;28.10;17.75;;;;;;;0.29;82.90;101997.06;5009608;28;20026;-72
2022/01/13 05:01:33;;;;;;;38.08;22.65;;;;;;;0.28;82.93;101997.06;5008398;28;20054;-71
2022/01/13 05:03:59;;;;;;;33.85;18.50;;;;;;;0.28;83.48;101994.44;5009187;28;20088;-71
2022/01/13 05:06:24;;;;;;;32.72;18.88;;;;;;;0.27;82.43;102003.97;5009229;28;20042;-72
2022/01/13 05:08:50;;;;;;;25.70;15.65;;;;;;;0.29;82.97;102003.97;5007825;28;20041;-72
2022/01/13 05:11:17;;;;;;;45.65;24.23;;;;;;;0.31;82.95;102004.91;5008983;28;20048;-72
2022/01/13 05:13:44;;;;;;;53.20;28.90;;;;;;;0.32;84.00;102002.38;5009324;28;20033;-73
2022/01/13 05:16:18;;;;;;;196.80;48.55;;;;;;;0.30;84.00;102000.56;5009231;28;20045;-73
2022/01/13 05:21:20;;;;;;;101.03;32.45;;;;;;;0.14;85.07;101997.50;4993265;28;20056;-73
2022/01/13 05:23:45;;;;;;;64.15;25.33;;;;;;;0.18;85.27;102004.56;5009394;28;20026;-73
2022/01/13 05:26:12;;;;;;;79.70;30.25;;;;;;;0.21;84.84;101995.97;5009400;28;20095;-72
2022/01/13 05:28:38;;;;;;;54.10;26.45;;;;;;;0.23;84.64;101999.50;4989690;28;20062;-73
2022/01/13 05:31:04;;;;;;;65.82;25.83;;;;;;;0.25;84.72;102002.13;4988122;28;20049;-73
2022/01/13 05:33:29;;;;;;;52.22;24.70;;;;;;;0.28;84.64;101994.44;5006689;28;20033;-73
2022/01/13 05:35:54;;;;;;;125.32;37.55;;;;;;;0.28;84.25;101991.84;5007676;28;20491;-73
2022/01/13 05:38:20;;;;;;;42.17;24.30;;;;;;;0.25;84.35;101992.66;5006943;28;20099;-74
2022/01/13 05:40:45;;;;;;;83.00;31.13;;;;;;;0.29;84.82;101985.81;5008069;28;20042;-73
2022/01/13 05:43:11;;;;;;;47.97;24.17;;;;;;;0.25;84.34;101982.28;5008767;28;20109;-73
2022/01/13 05:45:37;;;;;;;63.35;28.17;;;;;;;0.25;84.58;101979.69;5008442;28;20121;-73
2022/01/13 05:48:03;;;;;;;50.53;27.65;;;;;;;0.22;84.42;101974.38;5008556;28;20153;-73
2022/01/13 05:50:30;;;;;;;45.63;24.05;;;;;;;0.13;85.44;101974.16;5006617;28;20551;-72
2022/01/13 05:52:56;;;;;;;62.35;26.83;;;;;;;0.15;84.81;101978.53;5008055;28;20483;-72
2022/01/13 05:55:21;;;;;;;45.30;22.92;;;;;;;0.08;84.02;101974.00;5008263;28;20095;-73
2022/01/13 05:57:47;;;;;;;45.33;22.20;;;;;;;0.02;84.73;101976.41;5008709;28;20046;-73
2022/01/13 06:00:15;;;;;;;60.53;27.85;;;;;;;-0.01;84.42;101971.13;5008702;28;20057;-73
2022/01/13 06:02:41;;;;;;;59.65;27.92;;;;;;;-0.08;84.60;101969.19;5006046;28;20064;-73
2022/01/13 06:05:08;;;;;;;44.45;22.42;;;;;;;-0.13;84.79;101970.78;5005907;28;20550;-74
2022/01/13 06:07:33;;;;;;;62.55;27.05;;;;;;;-0.24;84.11;101971.34;5007983;28;20518;-74
2022/01/13 06:09:59;;;;;;;51.22;25.27;;;;;;;-0.28;84.57;101971.19;5007542;28;20030;-72
2022/01/13 06:12:32;;;;;;;30.33;18.13;;;;;;;-0.34;84.83;101973.63;5006959;28;20121;-72
2022/01/13 06:15:04;;;;;;;28.98;16.58;;;;;;;-0.33;84.12;101967.59;5009143;28;20052;-73
2022/01/13 06:17:29;;;;;;;29.65;16.65;;;;;;;-0.33;84.45;101971.06;5007957;28;20038;-73
2022/01/13 06:19:56;;;;;;;30.90;17.13;;;;;;;-0.35;84.39;101964.06;5009197;28;20040;-73
2022/01/13 06:22:22;;;;;;;34.47;17.20;;;;;;;-0.41;83.62;101966.50;5008358;28;20116;-72
2022/01/13 06:24:48;;;;;;;33.13;18.50;;;;;;;-0.46;84.42;101967.22;5010733;28;20038;-74
2022/01/13 06:27:13;;;;;;;37.97;18.98;;;;;;;-0.45;84.17;101973.28;5006738;28;20088;-72
2022/01/13 06:29:39;;;;;;;31.25;18.10;;;;;;;-0.45;84.20;101981.91;5008404;28;20125;-73
2022/01/13 06:32:04;;;;;;;27.23;15.32;;;;;;;-0.41;84.30;101979.44;5008265;28;20127;-72
2022/01/13 06:34:29;;;;;;;34.80;17.58;;;;;;;-0.42;83.97;101983.72;5007154;28;20046;-72
2022/01/13 06:36:55;;;;;;;29.58;16.55;;;;;;;-0.43;84.31;101981.97;5008624;28;20034;-72
2022/01/13 06:39:20;;;;;;;27.45;17.25;;;;;;;-0.42;83.94;101978.53;5008191;28;20053;-72
2022/01/13 06:41:46;;;;;;;27.40;15.15;;;;;;;-0.46;83.97;101972.41;5006798;28;20030;-72
2022/01/13 06:44:13;;;;;;;26.98;17.67;;;;;;;-0.43;84.08;101969.91;5007644;28;20156;-73
2022/01/13 06:46:38;;;;;;;26.98;14.27;;;;;;;-0.44;83.59;101964.69;5009019;28;20087;-72
2022/01/13 06:49:04;;;;;;;17.80;11.02;;;;;;;-0.46;82.87;101967.22;5009402;28;20125;-73
2022/01/13 06:51:30;;;;;;;23.15;13.00;;;;;;;-0.47;83.59;101956.78;5010758;28;20064;-72
2022/01/13 06:53:56;;;;;;;18.98;11.95;;;;;;;-0.49;83.19;101959.34;5011863;28;20049;-75
2022/01/13 06:56:24;;;;;;;19.55;12.98;;;;;;;-0.48;83.13;101952.44;5012092;28;20679;-73
2022/01/13 06:58:50;;;;;;;21.42;12.20;;;;;;;-0.44;83.60;101949.13;5012339;28;20042;-72
2022/01/13 07:01:15;;;;;;;19.08;11.20;;;;;;;-0.41;83.32;101956.13;5011005;28;20041;-71
2022/01/13 07:03:41;;;;;;;24.70;14.38;;;;;;;-0.40;83.36;101955.28;5011639;28;20040;-71
2022/01/13 07:06:06;;;;;;;22.58;13.60;;;;;;;-0.45;82.36;101957.72;5007826;28;20034;-72
2022/01/13 07:08:33;;;;;;;20.20;12.07;;;;;;;-0.48;82.89;101971.47;5021629;28;20037;-72
2022/01/13 07:11:01;;;;;;;20.63;11.23;;;;;;;-0.52;83.33;101963.53;5010257;28;20092;-72
2022/01/13 07:13:26;;;;;;;20.45;11.05;;;;;;;-0.52;83.04;101964.41;5011297;28;20437;-72
2022/01/13 07:15:51;;;;;;;20.88;12.23;;;;;;;-0.57;83.66;101968.56;5010804;28;20026;-72
2022/01/13 07:18:17;;;;;;;14.93;8.60;;;;;;;-0.54;83.33;101973.88;5010825;28;20038;-73
2022/01/13 07:20:43;;;;;;;19.25;8.82;;;;;;;-0.53;83.02;101970.44;5010150;28;20030;-72
2022/01/13 07:23:09;;;;;;;12.00;7.97;;;;;;;-0.49;83.34;101972.31;5011007;28;20434;-72
2022/01/13 07:25:34;;;;;;;18.80;12.05;;;;;;;-0.52;82.59;101981.69;5010748;28;20049;-72
2022/01/13 07:27:59;;;;;;;16.27;9.60;;;;;;;-0.52;82.90;101992.03;5011009;28;20058;-71
2022/01/13 07:30:25;;;;;;;15.05;9.20;;;;;;;-0.56;82.76;101995.38;5008857;28;20113;-72
2022/01/13 07:32:50;;;;;;;16.50;9.13;;;;;;;-0.57;82.94;101991.03;5011044;28;20507;-72
2022/01/13 07:35:15;;;;;;;14.98;8.20;;;;;;;-0.53;83.03;101996.34;5010376;28;20030;-72
2022/01/13 07:37:42;;;;;;;12.23;6.93;;;;;;;-0.50;82.87;102001.63;5010432;28;20040;-72
2022/01/13 07:40:13;;;;;;;14.05;7.72;;;;;;;-0.46;82.45;102002.63;5010032;28;20450;-71
2022/01/13 07:42:41;;;;;;;12.23;7.25;;;;;;;-0.45;82.72;102000.06;5007474;28;20030;-71
2022/01/13 07:45:07;;;;;;;14.32;7.43;;;;;;;-0.45;82.16;102004.38;5010161;28;20034;-71
2022/01/13 07:47:32;;;;;;;11.48;6.40;;;;;;;-0.46;82.39;102012.97;5010311;28;20037;-72
2022/01/13 07:49:58;;;;;;;11.98;8.35;;;;;;;-0.44;82.94;102004.41;5010930;28;20034;-73
2022/01/13 07:52:25;;;;;;;16.02;8.73;;;;;;;-0.44;82.83;102008.72;5010123;28;20501;-73
2022/01/13 07:54:51;;;;;;;11.73;5.43;;;;;;;-0.45;82.77;102009.53;5010606;28;20037;-73
2022/01/13 07:57:16;;;;;;;10.68;5.82;;;;;;;-0.45;82.49;102013.00;5010547;28;20108;-73
2022/01/13 07:59:42;;;;;;;10.07;5.03;;;;;;;-0.42;82.89;102004.44;5008873;28;20045;-73
2022/01/13 08:02:07;;;;;;;9.30;5.40;;;;;;;-0.38;83.11;102000.25;5009490;28;20030;-69
2022/01/13 08:04:32;;;;;;;12.55;5.20;;;;;;;-0.37;83.16;101997.72;5011514;28;20037;-70
2022/01/13 08:06:59;;;;;;;10.07;4.45;;;;;;;-0.34;82.71;101991.75;5010823;28;20033;-69
2022/01/13 08:09:25;;;;;;;9.52;5.13;;;;;;;-0.34;82.96;101986.56;5010783;28;20033;-69
2022/01/13 08:11:51;;;;;;;8.15;4.38;;;;;;;-0.31;82.69;101986.66;5007426;28;20069;-69
2022/01/13 08:14:16;;;;;;;8.75;3.83;;;;;;;-0.28;82.99;101987.63;5000430;28;20095;-69
2022/01/13 08:16:44;;;;;;;10.25;4.75;;;;;;;-0.24;82.88;101988.63;5007092;28;20069;-70
2022/01/13 08:21:53;;;;;;;9.65;3.88;;;;;;;-0.15;82.69;101995.78;5007942;28;20512;-69
2022/01/13 08:24:18;;;;;;;6.40;3.50;;;;;;;-0.07;82.26;102002.97;5011538;28;20037;-69
2022/01/13 08:26:44;;;;;;;7.78;3.40;;;;;;;0.00;82.36;102004.03;5012554;28;20437;-69
2022/01/13 08:29:09;;;;;;;9.20;6.50;;;;;;;0.04;82.19;102010.19;5011623;28;20110;-68
2022/01/13 08:31:34;;;;;;;9.63;4.22;;;;;;;0.08;81.83;102010.31;5009241;28;20041;-70
2022/01/13 08:34:00;;;;;;;7.03;3.42;;;;;;;0.14;82.15;102007.00;5008171;28;20033;-69
2022/01/13 08:36:25;;;;;;;6.63;3.10;;;;;;;0.19;81.82;102010.63;5009492;28;20045;-69
2022/01/13 08:38:50;;;;;;;8.85;4.15;;;;;;;0.23;81.82;102004.69;5010488;28;20060;-69
2022/01/13 08:41:16;;;;;;;5.93;3.30;;;;;;;0.31;81.90;102012.69;4997704;28;20419;-72
2022/01/13 08:43:42;;;;;;;6.70;3.83;;;;;;;0.32;81.78;102004.97;5000734;28;20034;-73
2022/01/13 08:46:08;;;;;;;6.32;3.63;;;;;;;0.36;81.76;102009.38;4993446;28;20062;-74
2022/01/13 08:48:34;;;;;;;5.28;3.13;;;;;;;0.43;81.87;102000.94;5001497;28;20079;-73
2022/01/13 08:51:00;;;;;;;5.82;2.90;;;;;;;0.55;81.84;102003.00;5002545;28;20034;-73
2022/01/13 08:53:25;;;;;;;9.02;3.53;;;;;;;0.64;81.55;102008.44;5004090;28;20049;-71
2022/01/13 08:55:54;;;;;;;9.15;3.38;;;;;;;0.70;81.29;102007.72;4993944;28;20823;-71
2022/01/13 08:58:20;;;;;;;8.75;3.50;;;;;;;0.77;81.55;102001.88;4987224;28;20616;-72
2022/01/13 09:00:45;;;;;;;6.20;3.22;;;;;;;0.84;80.83;102000.31;4984621;28;20142;-72
2022/01/13 09:03:11;;;;;;;9.13;3.88;;;;;;;0.95;81.22;102004.06;5000995;28;20040;-73
2022/01/13 09:05:38;;;;;;;7.53;3.45;;;;;;;1.06;80.37;102006.94;5004518;28;20044;-73
2022/01/13 09:08:09;;;;;;;7.90;3.88;;;;;;;1.17;80.81;102007.22;5004774;28;20103;-73
2022/01/13 09:10:35;;;;;;;6.97;2.67;;;;;;;1.24;80.15;102017.78;5001374;28;20057;-73
2022/01/13 09:13:01;;;;;;;5.22;3.45;;;;;;;1.34;79.72;102018.03;5003907;28;20041;-73
2022/01/13 09:15:38;;;;;;;7.28;3.55;;;;;;;1.44;79.39;102026.06;4986693;28;20125;-73
2022/01/13 09:18:16;;;;;;;4.93;3.03;;;;;;;1.50;79.64;102028.84;4983145;28;20467;-73
2022/01/13 09:20:42;;;;;;;9.23;3.90;;;;;;;1.62;78.90;102022.16;4983565;28;20045;-72
2022/01/13 09:23:08;;;;;;;6.50;3.45;;;;;;;1.72;78.37;102029.31;5002796;28;20041;-72
2022/01/13 09:25:34;;;;;;;7.13;3.47;;;;;;;1.86;78.06;102025.31;5004708;28;20042;-73
2022/01/13 09:28:02;;;;;;;5.22;2.97;;;;;;;1.97;77.96;102019.47;5004773;28;20164;-72
2022/01/13 09:30:27;;;;;;;7.40;3.20;;;;;;;2.57;77.05;102013.78;5004499;28;20042;-72
2022/01/13 09:32:53;;;;;;;7.43;3.63;;;;;;;4.15;72.73;102021.59;5004688;28;20030;-72
2022/01/13 09:35:19;;;;;;;9.95;3.95;;;;;;;5.52;67.63;102020.41;5003993;28;20099;-72
2022/01/13 09:37:44;;;;;;;7.28;3.85;;;;;;;6.78;64.22;102016.69;5004298;28;20407;-70
2022/01/13 09:40:12;;;;;;;11.23;4.00;;;;;;;7.83;60.60;102020.22;5004453;28;20510;-72
2022/01/13 09:42:40;;;;;;;4.82;2.95;;;;;;;8.56;57.61;102023.47;5001865;28;20117;-73
2022/01/13 09:45:07;;;;;;;6.20;2.80;;;;;;;9.25;54.44;102025.69;5004521;28;20487;-72
2022/01/13 09:47:33;;;;;;;5.93;3.72;;;;;;;10.05;54.33;102024.94;5004162;28;20046;-72
2022/01/13 09:50:04;;;;;;;24.95;13.52;;;;;;;10.55;50.52;102019.97;5004351;28;20037;-72
2022/01/13 09:52:30;;;;;;;19.08;6.95;;;;;;;11.03;51.20;102014.91;5003232;28;20116;-73
2022/01/13 09:54:55;;;;;;;8.45;4.50;;;;;;;11.47;47.93;102008.00;5004041;28;20180;-73
2022/01/13 09:57:21;;;;;;;7.85;3.97;;;;;;;11.94;47.09;102004.56;4995612;28;20042;-74
2022/01/13 09:59:46;;;;;;;8.20;4.10;;;;;;;12.33;45.55;102015.25;5001796;28;20048;-74
2022/01/13 10:02:11;;;;;;;7.00;4.25;;;;;;;12.71;45.76;102010.03;5002842;28;20093;-74
2022/01/13 10:04:44;;;;;;;6.45;4.13;;;;;;;13.14;45.24;102004.56;4994196;28;20030;-73
2022/01/13 10:07:11;;;;;;;7.32;4.03;;;;;;;13.46;43.62;102009.13;5002115;28;20034;-72
2022/01/13 10:09:56;;;;;;;6.82;4.10;;;;;;;13.85;43.10;102002.81;5002682;28;20061;-74
2022/01/13 10:12:27;;;;;;;11.70;4.65;;;;;;;14.16;43.06;102000.16;4987425;28;20077;-74
2022/01/13 10:17:48;;;;;;;14.75;7.70;;;;;;;14.76;39.87;102007.22;5000941;28;20037;-73
2022/01/13 10:20:16;;;;;;;7.80;4.65;;;;;;;14.97;39.20;102010.16;5004051;28;20030;-73
2022/01/13 10:22:42;;;;;;;6.68;4.07;;;;;;;15.11;40.34;102007.03;4986019;28;20042;-72
2022/01/13 10:25:23;;;;;;;8.40;3.67;;;;;;;15.25;37.73;102008.31;4984049;28;20133;-73
2022/01/13 10:27:48;;;;;;;6.28;3.60;;;;;;;14.94;39.51;101999.59;4984632;28;20038;-72
2022/01/13 10:30:18;;;;;;;5.43;3.40;;;;;;;14.26;38.41;102004.28;4984628;28;20040;-72
2022/01/13 10:32:45;;;;;;;14.73;5.57;;;;;;;13.37;38.68;102012.00;4983406;28;20117;-72
2022/01/13 10:35:11;;;;;;;17.00;4.65;;;;;;;12.62;39.72;102013.72;4992104;28;20045;-72
2022/01/13 10:37:42;;;;;;;35.03;9.40;;;;;;;12.06;40.33;102008.75;5008807;28;20041;-72
2022/01/13 10:40:13;;;;;;;47.45;10.80;;;;;;;11.54;41.95;102001.72;5003505;28;20083;-72
2022/01/13 10:45:25;;;;;;;19.95;5.22;;;;;;;10.77;41.75;102007.38;5003938;28;20572;-73
2022/01/13 10:47:58;;;;;;;19.92;6.32;;;;;;;10.31;42.46;102014.13;5002267;28;20045;-72
2022/01/13 10:50:35;;;;;;;5.57;2.50;;;;;;;9.89;42.61;102019.84;5003289;28;20042;-72
2022/01/13 10:53:04;;;;;;;9.15;3.45;;;;;;;9.69;43.19;102016.53;5003551;28;20153;-73
2022/01/13 10:55:32;;;;;;;18.83;5.63;;;;;;;9.44;43.77;102007.97;5003059;28;20045;-73
2022/01/13 10:57:58;;;;;;;15.85;4.97;;;;;;;9.13;44.12;102012.63;5004224;28;20092;-73
2022/01/13 11:00:26;;;;;;;11.75;3.28;;;;;;;8.78;43.71;102011.09;5003548;28;20030;-72
2022/01/13 11:03:09;;;;;;;6.78;3.05;;;;;;;8.60;44.52;102014.72;5003250;28;20579;-72
2022/01/13 11:05:52;;;;;;;5.97;2.60;;;;;;;8.41;44.52;102015.69;5003448;28;20042;-72
2022/01/13 11:08:33;;;;;;;4.80;2.28;;;;;;;8.23;44.52;102017.47;5003689;28;20045;-74
2022/01/13 11:11:03;;;;;;;7.60;2.80;;;;;;;8.21;45.82;102011.34;5003436;28;20382;-72
2022/01/13 11:13:30;;;;;;;4.85;2.53;;;;;;;8.21;45.86;102013.97;5002895;28;20153;-72
2022/01/13 11:15:56;;;;;;;5.57;3.03;;;;;;;8.19;45.81;102007.84;5001540;28;20034;-72
2022/01/13 11:18:28;;;;;;;11.48;3.80;;;;;;;8.12;46.57;102000.84;5003577;28;20034;-72
2022/01/13 11:20:55;;;;;;;6.68;3.58;;;;;;;8.03;46.45;101996.53;5000811;28;20037;-72
2022/01/13 11:23:21;;;;;;;11.68;3.38;;;;;;;8.04;46.35;101995.63;4983867;28;20137;-72
2022/01/13 11:25:50;;;;;;;8.32;3.05;;;;;;;8.03;46.11;101993.03;4979121;28;20026;-72
2022/01/13 11:28:15;;;;;;;9.75;3.17;;;;;;;8.06;45.96;101987.75;4983156;28;20066;-71
2022/01/13 11:30:42;;;;;;;8.27;3.03;;;;;;;8.09;46.17;101991.22;4983102;28;20134;-71
2022/01/13 11:33:07;;;;;;;7.53;2.40;;;;;;;8.15;45.85;101979.84;4983455;28;20069;-72
2022/01/13 11:35:42;;;;;;;4.10;2.22;;;;;;;8.16;46.31;101981.59;4987344;28;20055;-72
2022/01/13 11:38:08;;;;;;;4.43;2.47;;;;;;;8.09;46.21;101980.72;4999683;28;20033;-72
2022/01/13 11:40:42;;;;;;;4.43;2.15;;;;;;;8.12;46.64;101970.22;5004194;28;20115;-69
2022/01/13 11:43:27;;;;;;;4.15;2.53;;;;;;;8.11;45.82;101970.22;5005701;28;20419;-72
2022/01/13 11:45:52;;;;;;;4.60;2.15;;;;;;;8.13;46.34;101977.22;5007225;28;20025;-72
2022/01/13 11:48:26;;;;;;;6.90;2.65;;;;;;;8.19;47.71;101968.44;5007343;28;20104;-72
2022/01/13 11:51:13;;;;;;;4.72;2.15;;;;;;;8.23;46.09;101966.69;5007196;28;20111;-72